Time;durP1;ratioP1;P1;durP2;ratioP2;P2;SDS_P1;SDS_P2;PMS_P1;PMS_P2;Temp;Humidity;BMP_temperature;BMP_pressure;BME280_temperature;BME280_humidity;BME280_pressure;Samples;Min_cycle;Max_cycle;Signal;HPM_P1;HPM_P2
2023/12/24 00:00:13;;;;;;;10.20;2.15;;;;;;;;;;5012921;28;20489;-81
2023/12/24 00:02:38;;;;;;;9.65;1.83;;;;;;;;;;5013063;28;20022;-80
2023/12/24 00:05:04;;;;;;;12.60;2.30;;;;;;;;;;5012287;28;20026;-80
2023/12/24 00:07:29;;;;;;;13.02;2.35;;;;;;;;;;5012605;28;20241;-80
2023/12/24 00:09:54;;;;;;;10.17;2.07;;;;;;;;;;5012438;28;20018;-79
2023/12/24 00:12:19;;;;;;;11.27;1.70;;;;;;;;;;5012444;28;20609;-78
2023/12/24 00:14:44;;;;;;;17.03;2.17;;;;;;;;;;5012627;28;20697;-78
2023/12/24 00:17:10;;;;;;;9.23;1.70;;;;;;;;;;5012376;28;20253;-79
2023/12/24 00:19:35;;;;;;;9.80;1.97;;;;;;;;;;5012516;28;20022;-80
2023/12/24 00:22:00;;;;;;;16.63;2.45;;;;;;;;;;5012266;28;20292;-78
2023/12/24 00:24:25;;;;;;;9.43;2.07;;;;;;;;;;5012518;28;20028;-79
2023/12/24 00:26:50;;;;;;;13.77;1.93;;;;;;;;;;5012758;28;20264;-82
2023/12/24 00:29:16;;;;;;;20.55;2.92;;;;;;;;;;5012955;28;20256;-81
2023/12/24 00:31:41;;;;;;;15.50;2.10;;;;;;;;;;5012278;28;20041;-81
2023/12/24 00:34:06;;;;;;;15.20;3.08;;;;;;;;;;5012096;28;20022;-80
2023/12/24 00:36:31;;;;;;;13.98;2.58;;;;;;;;;;5012203;28;20022;-79
2023/12/24 00:38:56;;;;;;;11.63;2.23;;;;;;;;;;5012102;28;20363;-77
2023/12/24 00:41:22;;;;;;;18.73;3.25;;;;;;;;;;5012927;28;20753;-81
2023/12/24 00:43:47;;;;;;;8.43;1.80;;;;;;;;;;5015949;28;20494;-80
2023/12/24 00:46:15;;;;;;;17.50;2.73;;;;;;;;;;5014403;28;20395;-79
2023/12/24 00:48:41;;;;;;;11.93;2.03;;;;;;;;;;5015996;28;20724;-80
2023/12/24 00:51:06;;;;;;;14.88;2.17;;;;;;;;;;5015773;28;20119;-80
2023/12/24 00:53:31;;;;;;;14.82;2.53;;;;;;;;;;5014599;28;20014;-79
2023/12/24 00:55:58;;;;;;;19.88;2.70;;;;;;;;;;5015671;28;20018;-79
2023/12/24 00:58:23;;;;;;;17.60;3.08;;;;;;;;;;5014376;28;20033;-80
2023/12/24 01:00:48;;;;;;;15.60;2.40;;;;;;;;;;5015562;28;20018;-79
2023/12/24 01:03:14;;;;;;;17.67;2.47;;;;;;;;;;5015822;28;20026;-80
2023/12/24 01:05:39;;;;;;;15.75;2.53;;;;;;;;;;5015828;28;20018;-80
2023/12/24 01:08:04;;;;;;;17.23;2.55;;;;;;;;;;5018472;28;20024;-80
2023/12/24 01:10:29;;;;;;;18.13;2.55;;;;;;;;;;5015097;28;20104;-80
2023/12/24 01:12:55;;;;;;;15.63;2.57;;;;;;;;;;5015416;28;20049;-81
2023/12/24 01:15:20;;;;;;;17.73;2.53;;;;;;;;;;5015682;28;20280;-82
2023/12/24 01:17:45;;;;;;;17.08;3.22;;;;;;;;;;5015701;28;20348;-79
2023/12/24 01:20:14;;;;;;;18.83;2.97;;;;;;;;;;5015346;28;20371;-82
2023/12/24 01:22:39;;;;;;;17.70;2.90;;;;;;;;;;5015286;28;20018;-80
2023/12/24 01:25:04;;;;;;;22.10;3.60;;;;;;;;;;5015224;28;20073;-79
2023/12/24 01:27:30;;;;;;;19.45;3.28;;;;;;;;;;5016014;28;20095;-81
2023/12/24 01:29:55;;;;;;;18.33;3.08;;;;;;;;;;5015330;28;20446;-81
2023/12/24 01:32:20;;;;;;;18.60;2.85;;;;;;;;;;5013716;28;20092;-81
2023/12/24 01:34:46;;;;;;;24.73;3.08;;;;;;;;;;5015422;28;20043;-83
2023/12/24 01:37:11;;;;;;;15.60;3.90;;;;;;;;;;5013800;28;20108;-82
2023/12/24 01:39:36;;;;;;;25.50;3.85;;;;;;;;;;5013784;28;20129;-82
2023/12/24 01:42:01;;;;;;;23.30;4.37;;;;;;;;;;5014994;28;20033;-82
2023/12/24 01:44:27;;;;;;;15.02;2.95;;;;;;;;;;5015253;28;20261;-84
2023/12/24 01:46:52;;;;;;;17.98;3.33;;;;;;;;;;5013636;28;20117;-85
2023/12/24 01:49:17;;;;;;;40.30;3.97;;;;;;;;;;5013686;28;20068;-84
2023/12/24 01:51:43;;;;;;;25.83;3.70;;;;;;;;;;5013176;28;20388;-84
2023/12/24 01:54:08;;;;;;;24.80;3.78;;;;;;;;;;5011251;28;20030;-82
2023/12/24 01:56:34;;;;;;;30.80;3.80;;;;;;;;;;5013671;28;20386;-86
2023/12/24 01:58:59;;;;;;;22.13;3.35;;;;;;;;;;5013826;28;20311;-84
2023/12/24 02:01:26;;;;;;;22.90;3.72;;;;;;;;;;5011715;28;20526;-84
2023/12/24 02:03:51;;;;;;;21.27;3.92;;;;;;;;;;5013205;28;20024;-86
2023/12/24 02:06:17;;;;;;;25.83;4.35;;;;;;;;;;5013230;28;20097;-84
2023/12/24 02:08:44;;;;;;;23.40;4.30;;;;;;;;;;5013476;28;20022;-81
2023/12/24 02:11:09;;;;;;;23.40;3.15;;;;;;;;;;5012889;28;20471;-81
2023/12/24 02:13:34;;;;;;;16.45;3.25;;;;;;;;;;5013077;28;20105;-85
2023/12/24 02:16:00;;;;;;;18.77;3.35;;;;;;;;;;5013285;28;20397;-82
2023/12/24 02:18:26;;;;;;;14.23;2.97;;;;;;;;;;5013202;28;20014;-82
2023/12/24 02:20:51;;;;;;;17.98;2.97;;;;;;;;;;5012882;28;20086;-84
2023/12/24 02:23:16;;;;;;;18.42;2.95;;;;;;;;;;5012490;28;20044;-86
2023/12/24 02:25:42;;;;;;;19.23;3.15;;;;;;;;;;5011514;28;20439;-87
2023/12/24 02:28:13;;;;;;;13.05;2.58;;;;;;;;;;5012695;28;20450;-83
2023/12/24 02:30:38;;;;;;;;;;;;;;;;;;5013498;28;20076;-83
2023/12/24 02:33:06;;;;;;;13.25;2.55;;;;;;;;;;5013113;28;19901;-82
2023/12/24 02:35:32;;;;;;;11.07;2.17;;;;;;;;;;5012575;28;20029;-82
2023/12/24 02:37:57;;;;;;;10.75;2.13;;;;;;;;;;5012241;28;20033;-83
2023/12/24 02:40:23;;;;;;;10.48;1.88;;;;;;;;;;5012120;28;20022;-84
2023/12/24 02:42:48;;;;;;;12.32;2.35;;;;;;;;;;5012404;28;20022;-86
2023/12/24 02:45:13;;;;;;;18.17;2.80;;;;;;;;;;5012682;28;20033;-81
2023/12/24 02:47:39;;;;;;;11.82;3.13;;;;;;;;;;5012831;28;20018;-83
2023/12/24 02:50:05;;;;;;;15.60;2.42;;;;;;;;;;5011035;28;20045;-82
2023/12/24 02:52:30;;;;;;;18.77;2.50;;;;;;;;;;5010795;28;20104;-80
2023/12/24 02:54:56;;;;;;;13.65;2.17;;;;;;;;;;5012038;28;20105;-86
2023/12/24 02:57:21;;;;;;;13.00;2.85;;;;;;;;;;5010756;28;20022;-81
2023/12/24 02:59:46;;;;;;;15.80;2.53;;;;;;;;;;5010248;28;20029;-84
2023/12/24 03:02:12;;;;;;;20.05;2.33;;;;;;;;;;5012033;28;20104;-83
2023/12/24 03:04:37;;;;;;;14.88;2.92;;;;;;;;;;5011030;28;20477;-82
2023/12/24 03:07:02;;;;;;;12.33;2.93;;;;;;;;;;5010860;28;20177;-79
2023/12/24 03:09:27;;;;;;;19.80;2.75;;;;;;;;;;5011558;28;20332;-81
2023/12/24 03:11:52;;;;;;;13.88;2.63;;;;;;;;;;5011856;28;20111;-80
2023/12/24 03:14:18;;;;;;;22.60;2.57;;;;;;;;;;5011426;28;20026;-83
2023/12/24 03:16:43;;;;;;;23.63;3.42;;;;;;;;;;5012276;28;20267;-81
2023/12/24 03:19:08;;;;;;;20.70;2.87;;;;;;;;;;4994427;28;20022;-82
2023/12/24 03:21:33;;;;;;;16.75;2.85;;;;;;;;;;5012143;28;20280;-83
2023/12/24 03:23:59;;;;;;;18.25;3.20;;;;;;;;;;5012117;28;20022;-82
2023/12/24 03:26:24;;;;;;;20.35;3.03;;;;;;;;;;5011902;28;20465;-81
2023/12/24 03:28:49;;;;;;;25.33;2.88;;;;;;;;;;5011957;28;20108;-80
2023/12/24 03:31:15;;;;;;;25.42;3.13;;;;;;;;;;5012223;28;20053;-81
2023/12/24 03:33:40;;;;;;;15.75;2.35;;;;;;;;;;5011425;28;20020;-81
2023/12/24 03:36:07;;;;;;;15.03;2.63;;;;;;;;;;5011504;28;20026;-82
2023/12/24 03:38:32;;;;;;;13.93;3.33;;;;;;;;;;5011522;28;20539;-81
2023/12/24 03:40:57;;;;;;;19.77;3.00;;;;;;;;;;5009849;28;20025;-82
2023/12/24 03:43:22;;;;;;;24.50;2.43;;;;;;;;;;5011322;28;20022;-83
2023/12/24 03:45:47;;;;;;;20.30;2.50;;;;;;;;;;5010256;28;20311;-79
2023/12/24 03:48:13;;;;;;;15.75;3.17;;;;;;;;;;5011063;28;20320;-83
2023/12/24 03:50:38;;;;;;;25.27;2.80;;;;;;;;;;5011531;28;20014;-82
2023/12/24 03:53:04;;;;;;;17.67;3.03;;;;;;;;;;5011136;28;20045;-82
2023/12/24 03:55:29;;;;;;;26.33;3.15;;;;;;;;;;5011476;28;20026;-82
2023/12/24 03:57:54;;;;;;;20.20;2.97;;;;;;;;;;5011427;28;20397;-79
2023/12/24 04:00:20;;;;;;;18.42;2.65;;;;;;;;;;5011755;28;20292;-80
2023/12/24 04:02:45;;;;;;;26.08;3.75;;;;;;;;;;5011587;28;20046;-80
2023/12/24 04:05:10;;;;;;;19.00;3.05;;;;;;;;;;5011967;28;20025;-82
2023/12/24 04:07:36;;;;;;;20.63;3.13;;;;;;;;;;5011645;28;20476;-82
2023/12/24 04:10:01;;;;;;;25.75;3.30;;;;;;;;;;5011873;28;20470;-84
2023/12/24 04:12:26;;;;;;;14.73;2.60;;;;;;;;;;5011641;28;20129;-81
2023/12/24 04:14:51;;;;;;;25.15;3.50;;;;;;;;;;5010514;28;20554;-84
2023/12/24 04:17:16;;;;;;;29.85;3.55;;;;;;;;;;5015081;28;20329;-80
2023/12/24 04:19:42;;;;;;;20.23;3.20;;;;;;;;;;5015126;28;20311;-83
2023/12/24 04:22:07;;;;;;;23.58;3.55;;;;;;;;;;5015030;28;20773;-83
2023/12/24 04:24:32;;;;;;;23.25;3.42;;;;;;;;;;5015076;28;20051;-83
2023/12/24 04:26:57;;;;;;;27.02;3.60;;;;;;;;;;5013639;28;20064;-81
2023/12/24 04:29:23;;;;;;;28.10;3.75;;;;;;;;;;5015426;28;20022;-80
2023/12/24 04:31:48;;;;;;;38.37;5.07;;;;;;;;;;5013615;28;20043;-82
2023/12/24 04:34:13;;;;;;;37.15;5.13;;;;;;;;;;5013435;28;20260;-81
2023/12/24 04:36:38;;;;;;;34.60;4.57;;;;;;;;;;5014181;28;20018;-82
2023/12/24 04:39:04;;;;;;;34.55;4.10;;;;;;;;;;5014544;28;20036;-82
2023/12/24 04:41:29;;;;;;;32.95;4.28;;;;;;;;;;5014860;28;20025;-83
2023/12/24 04:43:55;;;;;;;39.92;5.70;;;;;;;;;;5013431;28;20032;-81
2023/12/24 04:46:20;;;;;;;39.35;4.80;;;;;;;;;;5014763;28;20029;-79
2023/12/24 04:48:45;;;;;;;40.90;5.65;;;;;;;;;;5014788;28;20130;-80
2023/12/24 04:51:11;;;;;;;49.20;6.00;;;;;;;;;;5015164;28;20034;-79
2023/12/24 04:53:36;;;;;;;40.35;5.40;;;;;;;;;;5014509;28;20252;-80
2023/12/24 04:56:02;;;;;;;43.37;5.17;;;;;;;;;;5014645;28;20406;-78
2023/12/24 04:58:27;;;;;;;34.70;5.20;;;;;;;;;;5015040;28;20787;-79
2023/12/24 05:00:52;;;;;;;50.67;5.97;;;;;;;;;;5014432;28;20022;-81
2023/12/24 05:03:17;;;;;;;48.70;6.65;;;;;;;;;;5014770;28;20728;-80
2023/12/24 05:05:42;;;;;;;32.95;4.80;;;;;;;;;;5013778;28;20399;-80
2023/12/24 05:08:08;;;;;;;51.75;6.07;;;;;;;;;;5014448;28;20053;-80
2023/12/24 05:10:33;;;;;;;42.70;5.00;;;;;;;;;;5012933;28;20022;-79
2023/12/24 05:12:58;;;;;;;42.35;5.70;;;;;;;;;;5014207;28;20373;-84
2023/12/24 05:15:23;;;;;;;38.63;5.47;;;;;;;;;;5013843;28;20492;-81
2023/12/24 05:17:49;;;;;;;31.48;5.07;;;;;;;;;;5013778;28;20279;-80
2023/12/24 05:20:14;;;;;;;42.37;5.53;;;;;;;;;;5013997;28;20105;-81
2023/12/24 05:22:39;;;;;;;38.58;4.38;;;;;;;;;;5013988;28;20471;-82
2023/12/24 05:25:04;;;;;;;31.63;4.40;;;;;;;;;;5014165;28;20390;-80
2023/12/24 05:27:30;;;;;;;39.55;5.32;;;;;;;;;;5012915;28;20728;-83
2023/12/24 05:29:55;;;;;;;27.53;4.63;;;;;;;;;;5013701;28;20339;-80
2023/12/24 05:32:20;;;;;;;30.53;4.53;;;;;;;;;;5013199;28;20716;-79
2023/12/24 05:34:45;;;;;;;35.08;5.05;;;;;;;;;;5013789;28;20257;-79
2023/12/24 05:37:11;;;;;;;37.45;5.35;;;;;;;;;;5013868;28;20442;-79
2023/12/24 05:39:40;;;;;;;33.97;4.32;;;;;;;;;;5013945;28;20029;-80
2023/12/24 05:42:05;;;;;;;29.55;4.85;;;;;;;;;;5013509;28;20021;-82
2023/12/24 05:44:33;;;;;;;39.90;4.80;;;;;;;;;;5013431;28;20514;-79
2023/12/24 05:46:58;;;;;;;28.65;3.97;;;;;;;;;;5013638;28;20036;-80
2023/12/24 05:49:23;;;;;;;34.17;4.57;;;;;;;;;;5013546;28;20136;-80
2023/12/24 05:51:49;;;;;;;28.37;4.23;;;;;;;;;;5013788;28;20022;-82
2023/12/24 05:54:14;;;;;;;37.93;4.20;;;;;;;;;;5013856;28;20260;-79
2023/12/24 05:56:39;;;;;;;27.23;4.50;;;;;;;;;;5013290;28;20283;-80
2023/12/24 05:59:05;;;;;;;30.10;4.25;;;;;;;;;;5014043;28;20018;-81
2023/12/24 06:01:30;;;;;;;32.15;4.20;;;;;;;;;;5013634;28;20026;-80
2023/12/24 06:03:55;;;;;;;32.60;3.67;;;;;;;;;;5013196;28;20058;-79
2023/12/24 06:06:21;;;;;;;29.65;3.90;;;;;;;;;;5011937;28;20014;-78
2023/12/24 06:08:46;;;;;;;27.73;4.85;;;;;;;;;;5013086;28;20104;-79
2023/12/24 06:11:20;;;;;;;19.48;3.33;;;;;;;;;;5013372;28;20044;-79
2023/12/24 06:13:45;;;;;;;35.42;3.92;;;;;;;;;;5012971;28;20026;-79
2023/12/24 06:16:13;;;;;;;26.58;3.85;;;;;;;;;;5013160;28;20028;-80
2023/12/24 06:18:40;;;;;;;23.40;3.22;;;;;;;;;;5012859;28;20385;-79
2023/12/24 06:21:05;;;;;;;30.60;3.30;;;;;;;;;;5013026;28;20075;-80
2023/12/24 06:23:31;;;;;;;20.70;3.30;;;;;;;;;;5013473;28;20030;-80
2023/12/24 06:25:57;;;;;;;30.35;3.92;;;;;;;;;;5012971;28;20079;-78
2023/12/24 06:28:22;;;;;;;22.88;3.60;;;;;;;;;;5013016;28;20466;-79
2023/12/24 06:30:47;;;;;;;24.80;3.73;;;;;;;;;;5013007;28;20022;-79
2023/12/24 06:33:12;;;;;;;25.80;4.33;;;;;;;;;;5012830;28;20261;-80
2023/12/24 06:35:37;;;;;;;19.47;3.03;;;;;;;;;;5012476;28;20261;-78
2023/12/24 06:38:03;;;;;;;26.25;3.58;;;;;;;;;;5012891;28;20590;-80
2023/12/24 06:40:28;;;;;;;16.50;2.92;;;;;;;;;;5012574;28;20014;-84
2023/12/24 06:42:53;;;;;;;30.35;4.03;;;;;;;;;;5012392;28;20029;-81
2023/12/24 06:45:20;;;;;;;25.48;3.70;;;;;;;;;;5012290;28;20062;-79
2023/12/24 06:47:45;;;;;;;25.70;3.20;;;;;;;;;;5012532;28;20076;-79
2023/12/24 06:50:10;;;;;;;18.13;3.97;;;;;;;;;;5011107;28;20296;-79
2023/12/24 06:52:35;;;;;;;27.50;3.58;;;;;;;;;;5011194;28;20395;-81
2023/12/24 06:55:00;;;;;;;24.42;4.03;;;;;;;;;;5011943;28;20055;-79
2023/12/24 06:57:26;;;;;;;28.58;3.58;;;;;;;;;;5010798;28;20068;-78
2023/12/24 06:59:51;;;;;;;27.30;4.50;;;;;;;;;;5012330;28;20017;-80
2023/12/24 07:02:16;;;;;;;27.08;3.10;;;;;;;;;;5010627;28;20083;-79
2023/12/24 07:04:42;;;;;;;16.87;3.10;;;;;;;;;;5010748;28;20033;-81
2023/12/24 07:07:07;;;;;;;26.38;3.63;;;;;;;;;;5012011;28;20321;-80
2023/12/24 07:09:32;;;;;;;21.13;3.27;;;;;;;;;;5012029;28;20026;-80
2023/12/24 07:11:57;;;;;;;23.02;3.42;;;;;;;;;;5012145;28;20264;-78
2023/12/24 07:14:22;;;;;;;23.60;3.97;;;;;;;;;;5011968;28;20354;-79
2023/12/24 07:16:48;;;;;;;19.02;3.50;;;;;;;;;;5011608;28;20072;-81
2023/12/24 07:19:13;;;;;;;24.23;3.25;;;;;;;;;;5011895;28;20028;-79
2023/12/24 07:21:38;;;;;;;25.80;4.35;;;;;;;;;;5011509;28;20418;-81
2023/12/24 07:24:03;;;;;;;18.20;2.87;;;;;;;;;;5011654;28;20026;-80
2023/12/24 07:26:29;;;;;;;16.70;3.22;;;;;;;;;;5012363;28;20569;-79
2023/12/24 07:28:54;;;;;;;24.37;3.33;;;;;;;;;;5011636;28;20366;-80
2023/12/24 07:31:19;;;;;;;15.27;3.07;;;;;;;;;;5011767;28;20758;-80
2023/12/24 07:33:44;;;;;;;20.30;3.27;;;;;;;;;;5011556;28;20265;-79
2023/12/24 07:36:09;;;;;;;18.27;3.40;;;;;;;;;;5011197;28;20282;-79
2023/12/24 07:38:35;;;;;;;23.95;3.40;;;;;;;;;;5011118;28;20100;-80
2023/12/24 07:41:00;;;;;;;22.37;3.63;;;;;;;;;;5011397;28;20021;-78
2023/12/24 07:43:27;;;;;;;13.50;2.75;;;;;;;;;;5010121;28;20360;-81
2023/12/24 07:45:52;;;;;;;16.77;3.15;;;;;;;;;;5011852;28;20025;-80
2023/12/24 07:48:17;;;;;;;27.02;4.90;;;;;;;;;;5011374;28;20038;-80
2023/12/24 07:50:42;;;;;;;33.55;4.35;;;;;;;;;;5010895;28;20049;-78
2023/12/24 07:53:08;;;;;;;24.10;4.18;;;;;;;;;;5011611;28;20018;-83
2023/12/24 07:55:33;;;;;;;37.08;4.30;;;;;;;;;;5011326;28;20417;-80
2023/12/24 07:57:58;;;;;;;30.80;4.18;;;;;;;;;;5011194;28;20053;-77
2023/12/24 08:00:23;;;;;;;31.38;4.68;;;;;;;;;;5011108;28;20066;-79
2023/12/24 08:02:49;;;;;;;34.03;4.85;;;;;;;;;;5011118;28;20387;-80
2023/12/24 08:05:14;;;;;;;34.92;5.00;;;;;;;;;;5010829;28;20077;-76
2023/12/24 08:07:39;;;;;;;35.00;4.72;;;;;;;;;;5011110;28;20132;-80
2023/12/24 08:10:05;;;;;;;30.33;4.95;;;;;;;;;;5010970;28;20018;-79
2023/12/24 08:12:30;;;;;;;35.63;4.47;;;;;;;;;;5010870;28;20365;-79
2023/12/24 08:14:56;;;;;;;33.85;4.68;;;;;;;;;;5010951;28;20108;-84
2023/12/24 08:17:21;;;;;;;35.03;4.95;;;;;;;;;;5011040;28;20037;-80
2023/12/24 08:19:46;;;;;;;25.63;3.57;;;;;;;;;;5010987;28;20437;-81
2023/12/24 08:22:11;;;;;;;39.67;4.70;;;;;;;;;;5011090;28;20287;-81
2023/12/24 08:24:37;;;;;;;38.85;5.32;;;;;;;;;;5011049;28;20264;-82
2023/12/24 08:27:03;;;;;;;35.08;4.60;;;;;;;;;;5009361;28;20014;-81
2023/12/24 08:29:28;;;;;;;35.17;4.47;;;;;;;;;;5009474;28;20399;-81
2023/12/24 08:31:55;;;;;;;29.67;4.30;;;;;;;;;;5010634;28;20105;-79
2023/12/24 08:34:21;;;;;;;26.95;4.13;;;;;;;;;;5010730;28;20264;-80
2023/12/24 08:36:46;;;;;;;34.42;5.18;;;;;;;;;;5010756;28;20053;-80
2023/12/24 08:39:11;;;;;;;38.50;4.37;;;;;;;;;;5011032;28;20057;-76
2023/12/24 08:41:37;;;;;;;32.20;4.35;;;;;;;;;;5010801;28;20438;-78
2023/12/24 08:44:03;;;;;;;37.47;4.57;;;;;;;;;;5010510;28;20460;-78
2023/12/24 08:46:28;;;;;;;27.40;4.25;;;;;;;;;;5008715;28;20423;-80
2023/12/24 08:48:53;;;;;;;31.10;4.07;;;;;;;;;;5009854;28;20129;-79
2023/12/24 08:51:19;;;;;;;30.52;4.10;;;;;;;;;;5010389;28;20493;-81
2023/12/24 08:53:44;;;;;;;26.13;4.60;;;;;;;;;;5010739;28;20423;-80
2023/12/24 08:56:09;;;;;;;26.57;4.27;;;;;;;;;;5010424;28;20022;-79
2023/12/24 08:58:34;;;;;;;35.05;4.82;;;;;;;;;;5010250;28;20250;-78
2023/12/24 09:01:00;;;;;;;28.25;4.78;;;;;;;;;;5010031;28;20156;-80
2023/12/24 09:03:25;;;;;;;32.33;4.90;;;;;;;;;;5013633;28;20409;-80
2023/12/24 09:05:50;;;;;;;31.73;3.80;;;;;;;;;;5013868;28;20277;-79
2023/12/24 09:08:16;;;;;;;30.67;4.22;;;;;;;;;;5013662;28;20024;-79
2023/12/24 09:10:42;;;;;;;30.27;4.38;;;;;;;;;;5013400;28;20438;-77
2023/12/24 09:13:07;;;;;;;27.02;4.25;;;;;;;;;;5013426;28;20072;-83
2023/12/24 09:15:32;;;;;;;33.03;4.50;;;;;;;;;;5012206;28;20034;-81
2023/12/24 09:17:57;;;;;;;23.90;4.35;;;;;;;;;;5014019;28;20100;-79
2023/12/24 09:20:23;;;;;;;38.10;4.38;;;;;;;;;;5012502;28;20045;-83
2023/12/24 09:22:48;;;;;;;30.27;4.40;;;;;;;;;;5013266;28;20025;-76
2023/12/24 09:25:13;;;;;;;36.88;5.78;;;;;;;;;;5012087;28;20061;-77
2023/12/24 09:27:38;;;;;;;32.95;4.80;;;;;;;;;;5013925;28;20062;-77
2023/12/24 09:30:04;;;;;;;25.48;4.47;;;;;;;;;;5013707;28;20481;-79
2023/12/24 09:32:32;;;;;;;29.58;5.18;;;;;;;;;;5012443;28;20113;-78
2023/12/24 09:34:57;;;;;;;35.78;5.15;;;;;;;;;;5014090;28;20152;-79
2023/12/24 09:37:24;;;;;;;33.60;5.47;;;;;;;;;;5013212;28;20026;-77
2023/12/24 09:39:49;;;;;;;34.55;6.05;;;;;;;;;;5012117;28;20338;-76
2023/12/24 09:42:14;;;;;;;49.08;5.70;;;;;;;;;;5013463;28;20513;-79
2023/12/24 09:44:39;;;;;;;30.30;5.18;;;;;;;;;;5013367;28;20144;-77
2023/12/24 09:47:04;;;;;;;34.00;5.15;;;;;;;;;;5013501;28;20021;-78
2023/12/24 09:49:30;;;;;;;33.63;5.35;;;;;;;;;;5013400;28;20162;-79
2023/12/24 09:51:56;;;;;;;38.42;4.70;;;;;;;;;;5013491;28;20423;-79
2023/12/24 09:54:22;;;;;;;36.95;5.93;;;;;;;;;;5013209;28;20025;-77
2023/12/24 09:56:47;;;;;;;47.50;6.32;;;;;;;;;;5013253;28;20018;-76
2023/12/24 09:59:12;;;;;;;40.83;5.60;;;;;;;;;;5013187;28;20100;-81
2023/12/24 10:01:42;;;;;;;39.70;5.68;;;;;;;;;;5011854;28;20036;-76
2023/12/24 10:04:07;;;;;;;47.38;7.78;;;;;;;;;;5013357;28;20013;-76
2023/12/24 10:06:33;;;;;;;40.15;4.70;;;;;;;;;;5011684;28;20112;-78
2023/12/24 10:08:58;;;;;;;38.40;6.55;;;;;;;;;;5012887;28;20342;-77
2023/12/24 10:11:23;;;;;;;38.97;5.72;;;;;;;;;;5013162;28;20034;-77
2023/12/24 10:13:59;;;;;;;31.77;5.05;;;;;;;;;;5012216;28;20024;-76
2023/12/24 10:16:24;;;;;;;35.60;5.45;;;;;;;;;;5012725;28;20041;-76
2023/12/24 10:18:50;;;;;;;41.55;5.57;;;;;;;;;;5012630;28;20452;-78
2023/12/24 10:21:16;;;;;;;37.20;4.93;;;;;;;;;;5012179;28;20400;-79
2023/12/24 10:23:41;;;;;;;45.63;6.15;;;;;;;;;;5012227;28;20026;-80
2023/12/24 10:26:08;;;;;;;50.40;6.38;;;;;;;;;;5012739;28;20024;-81
2023/12/24 10:28:34;;;;;;;40.97;6.68;;;;;;;;;;5012965;28;20441;-80
2023/12/24 10:31:09;;;;;;;36.30;5.68;;;;;;;;;;5012456;28;20018;-82
2023/12/24 10:33:35;;;;;;;31.13;4.60;;;;;;;;;;5012411;28;20018;-82
2023/12/24 10:36:00;;;;;;;32.85;5.28;;;;;;;;;;5012262;28;20045;-81
2023/12/24 10:38:29;;;;;;;34.47;5.97;;;;;;;;;;5012236;28;20022;-81
2023/12/24 10:40:54;;;;;;;39.88;5.18;;;;;;;;;;5010499;28;20405;-80
2023/12/24 10:43:23;;;;;;;31.35;5.15;;;;;;;;;;5010874;28;20057;-82
2023/12/24 10:45:48;;;;;;;41.75;5.90;;;;;;;;;;5012278;28;20018;-79
2023/12/24 10:48:16;;;;;;;32.85;5.00;;;;;;;;;;4994030;28;20417;-79
2023/12/24 10:50:42;;;;;;;35.63;5.47;;;;;;;;;;5012059;28;20469;-82
2023/12/24 10:53:07;;;;;;;39.92;5.88;;;;;;;;;;5010653;28;20153;-80
2023/12/24 10:55:34;;;;;;;29.23;5.23;;;;;;;;;;5010483;28;20053;-81
2023/12/24 10:58:18;;;;;;;31.65;4.63;;;;;;;;;;5011839;28;20285;-82
2023/12/24 11:00:43;;;;;;;39.33;5.20;;;;;;;;;;5011932;28;20018;-81
2023/12/24 11:03:09;;;;;;;48.50;6.40;;;;;;;;;;5011370;28;20099;-82
2023/12/24 11:05:42;;;;;;;47.78;6.35;;;;;;;;;;5011882;28;20058;-81
2023/12/24 11:08:19;;;;;;;44.67;5.90;;;;;;;;;;5011798;28;20323;-83
2023/12/24 11:10:52;;;;;;;50.88;7.80;;;;;;;;;;5011905;28;20099;-82
2023/12/24 11:13:30;;;;;;;41.80;6.95;;;;;;;;;;5010828;28;20030;-86
2023/12/24 11:15:55;;;;;;;50.08;7.45;;;;;;;;;;5011716;28;20038;-82
2023/12/24 11:18:38;;;;;;;60.95;7.15;;;;;;;;;;5011637;28;20068;-82
2023/12/24 11:21:03;;;;;;;44.40;6.70;;;;;;;;;;5011791;28;20183;-81
2023/12/24 11:23:29;;;;;;;43.17;7.07;;;;;;;;;;5011223;28;20154;-80
2023/12/24 11:25:54;;;;;;;57.57;7.97;;;;;;;;;;5010670;28;20033;-80
2023/12/24 11:28:23;;;;;;;53.50;7.70;;;;;;;;;;5011843;28;20259;-79
2023/12/24 11:30:51;;;;;;;60.97;7.57;;;;;;;;;;5011609;28;20151;-84
2023/12/24 11:33:28;;;;;;;52.85;6.97;;;;;;;;;;5011456;28;20040;-81
2023/12/24 11:35:54;;;;;;;49.05;7.40;;;;;;;;;;5011825;28;20026;-83
2023/12/24 11:38:35;;;;;;;57.47;8.45;;;;;;;;;;5009898;28;20060;-80
2023/12/24 11:41:06;;;;;;;69.03;7.27;;;;;;;;;;5010817;28;20022;-78
2023/12/24 11:43:31;;;;;;;;;;;;;;;;;;5010189;28;20014;-79
2023/12/24 11:45:57;;;;;;;58.40;7.60;;;;;;;;;;5011091;28;19974;-80
2023/12/24 11:48:27;;;;;;;51.08;6.63;;;;;;;;;;5010644;28;20384;-77
2023/12/24 11:51:02;;;;;;;57.88;7.03;;;;;;;;;;5010409;28;20504;-78
2023/12/24 11:53:33;;;;;;;53.10;6.95;;;;;;;;;;5011009;28;20117;-78
2023/12/24 11:56:06;;;;;;;47.85;6.80;;;;;;;;;;5011120;28;20022;-78
2023/12/24 11:58:31;;;;;;;47.88;7.07;;;;;;;;;;5010988;28;20068;-83
2023/12/24 12:01:02;;;;;;;48.40;6.60;;;;;;;;;;5009503;28;20458;-78
2023/12/24 12:03:27;;;;;;;49.90;7.05;;;;;;;;;;5010578;28;20411;-76
2023/12/24 12:05:53;;;;;;;44.95;6.40;;;;;;;;;;5010767;28;20073;-75
2023/12/24 12:08:18;;;;;;;57.38;8.75;;;;;;;;;;5011120;28;20018;-79
2023/12/24 12:10:43;;;;;;;48.15;7.20;;;;;;;;;;5010591;28;20071;-79
2023/12/24 12:13:08;;;;;;;46.77;7.20;;;;;;;;;;5010625;28;20457;-78
2023/12/24 12:15:34;;;;;;;54.22;7.05;;;;;;;;;;5010988;28;20275;-79
2023/12/24 12:17:59;;;;;;;50.78;6.80;;;;;;;;;;5011044;28;20355;-78
2023/12/24 12:20:25;;;;;;;56.23;7.93;;;;;;;;;;5010684;28;20014;-81
2023/12/24 12:22:51;;;;;;;54.30;7.28;;;;;;;;;;5010559;28;20284;-81
2023/12/24 12:25:17;;;;;;;55.47;7.50;;;;;;;;;;5010893;28;20018;-78
2023/12/24 12:27:42;;;;;;;46.85;7.22;;;;;;;;;;5010965;28;20487;-77
2023/12/24 12:30:08;;;;;;;51.60;6.78;;;;;;;;;;5010883;28;20025;-76
2023/12/24 12:32:34;;;;;;;58.47;6.82;;;;;;;;;;5010957;28;20354;-77
2023/12/24 12:35:00;;;;;;;48.10;6.18;;;;;;;;;;5011484;28;20109;-76
2023/12/24 12:37:25;;;;;;;38.90;6.57;;;;;;;;;;5012592;28;20049;-76
2023/12/24 12:39:50;;;;;;;41.08;7.00;;;;;;;;;;5013403;28;20406;-78
2023/12/24 12:42:15;;;;;;;45.95;6.85;;;;;;;;;;5014496;28;20029;-79
2023/12/24 12:44:40;;;;;;;43.17;6.65;;;;;;;;;;5014119;28;20447;-79
2023/12/24 12:47:06;;;;;;;49.75;7.20;;;;;;;;;;5012746;28;20311;-82
2023/12/24 12:49:31;;;;;;;47.00;6.30;;;;;;;;;;5014052;28;20141;-79
2023/12/24 12:51:57;;;;;;;41.92;7.20;;;;;;;;;;5014427;28;20035;-78
2023/12/24 12:54:22;;;;;;;48.67;6.35;;;;;;;;;;5014016;28;20371;-82
2023/12/24 12:56:52;;;;;;;50.22;6.30;;;;;;;;;;5013644;28;20018;-77
2023/12/24 12:59:25;;;;;;;35.00;5.55;;;;;;;;;;5014406;28;20064;-75
2023/12/24 13:01:51;;;;;;;39.58;6.03;;;;;;;;;;5014066;28;20018;-77
2023/12/24 13:04:23;;;;;;;42.70;5.65;;;;;;;;;;5014220;28;20463;-81
2023/12/24 13:06:52;;;;;;;50.58;6.53;;;;;;;;;;5014277;28;20106;-84
2023/12/24 13:09:19;;;;;;;39.47;6.07;;;;;;;;;;5014126;28;20067;-75
2023/12/24 13:11:44;;;;;;;41.78;5.65;;;;;;;;;;5014064;28;20026;-79
2023/12/24 13:14:09;;;;;;;33.65;6.00;;;;;;;;;;5014334;28;20032;-84
2023/12/24 13:16:34;;;;;;;41.53;5.90;;;;;;;;;;5013937;28;20026;-84
2023/12/24 13:19:15;;;;;;;44.78;7.13;;;;;;;;;;5011712;28;20076;-81
2023/12/24 13:21:41;;;;;;;44.53;6.57;;;;;;;;;;5013819;28;20030;-77
2023/12/24 13:24:06;;;;;;;40.85;5.15;;;;;;;;;;5012149;28;20447;-78
2023/12/24 13:26:31;;;;;;;43.17;5.75;;;;;;;;;;5013933;28;20022;-80
2023/12/24 13:29:00;;;;;;;39.55;4.93;;;;;;;;;;5013222;28;20135;-80
2023/12/24 13:31:26;;;;;;;45.38;6.45;;;;;;;;;;5013587;28;20100;-80
2023/12/24 13:33:51;;;;;;;54.42;6.18;;;;;;;;;;5013282;28;20127;-79
2023/12/24 13:36:17;;;;;;;32.70;5.43;;;;;;;;;;5012915;28;20117;-81
2023/12/24 13:38:42;;;;;;;45.90;6.22;;;;;;;;;;5011815;28;20096;-82
2023/12/24 13:41:07;;;;;;;38.40;5.30;;;;;;;;;;5012800;28;20041;-79
2023/12/24 13:43:33;;;;;;;29.92;5.28;;;;;;;;;;5012909;28;20036;-77
2023/12/24 13:45:58;;;;;;;39.13;5.60;;;;;;;;;;5011475;28;20101;-76
2023/12/24 13:48:24;;;;;;;32.13;5.45;;;;;;;;;;5011890;28;20034;-80
2023/12/24 13:50:50;;;;;;;24.77;4.43;;;;;;;;;;5012906;28;20125;-80
2023/12/24 13:53:16;;;;;;;35.97;5.78;;;;;;;;;;5011806;28;20052;-85
2023/12/24 13:55:41;;;;;;;39.47;5.45;;;;;;;;;;5013194;28;20395;-81
2023/12/24 13:58:08;;;;;;;29.63;3.92;;;;;;;;;;5013051;28;20019;-82
2023/12/24 14:00:33;;;;;;;35.90;4.82;;;;;;;;;;5012925;28;20427;-84
2023/12/24 14:02:58;;;;;;;30.73;5.43;;;;;;;;;;5012877;28;20052;-81
2023/12/24 14:05:23;;;;;;;37.30;5.28;;;;;;;;;;5012901;28;20489;-76
2023/12/24 14:07:49;;;;;;;27.98;5.15;;;;;;;;;;5012897;28;20033;-87
2023/12/24 14:10:14;;;;;;;24.02;4.30;;;;;;;;;;5012790;28;20060;-80
2023/12/24 14:12:40;;;;;;;24.40;4.32;;;;;;;;;;5012644;28;20029;-79
2023/12/24 14:15:06;;;;;;;24.55;4.72;;;;;;;;;;5013099;28;20049;-82
2023/12/24 14:17:32;;;;;;;30.83;4.55;;;;;;;;;;5012865;28;20022;-79
2023/12/24 14:19:57;;;;;;;32.53;4.72;;;;;;;;;;5011277;28;20319;-82
2023/12/24 14:22:23;;;;;;;43.25;5.53;;;;;;;;;;5012597;28;20101;-77